sensor_id;sensor_type;location;lat;lon;timestamp;P1;durP1;ratioP1;P2;durP2;ratioP2
10465;SDS011;5280;42.600;23.556;2023-04-06T00:00:01;12.07;;;9.20;;
10465;SDS011;5280;42.600;23.556;2023-04-06T00:02:29;11.10;;;8.17;;
10465;SDS011;5280;42.600;23.556;2023-04-06T00:04:56;9.27;;;8.27;;
10465;SDS011;5280;42.600;23.556;2023-04-06T00:07:23;11.03;;;8.90;;
10465;SDS011;5280;42.600;23.556;2023-04-06T00:09:50;9.70;;;8.50;;
10465;SDS011;5280;42.600;23.556;2023-04-06T00:12:18;10.80;;;9.00;;
10465;SDS011;5280;42.600;23.556;2023-04-06T00:14:45;11.67;;;9.07;;
10465;SDS011;5280;42.600;23.556;2023-04-06T00:17:12;10.53;;;9.43;;
10465;SDS011;5280;42.600;23.556;2023-04-06T00:19:39;9.77;;;8.47;;
10465;SDS011;5280;42.600;23.556;2023-04-06T00:22:06;9.80;;;8.80;;
10465;SDS011;5280;42.600;23.556;2023-04-06T00:24:33;10.30;;;9.27;;
10465;SDS011;5280;42.600;23.556;2023-04-06T00:27:00;10.37;;;8.73;;
10465;SDS011;5280;42.600;23.556;2023-04-06T00:29:29;11.20;;;9.17;;
10465;SDS011;5280;42.600;23.556;2023-04-06T00:31:56;9.47;;;8.17;;
10465;SDS011;5280;42.600;23.556;2023-04-06T00:34:23;9.77;;;8.77;;
10465;SDS011;5280;42.600;23.556;2023-04-06T00:36:49;10.40;;;8.97;;
10465;SDS011;5280;42.600;23.556;2023-04-06T00:39:16;9.20;;;8.10;;
10465;SDS011;5280;42.600;23.556;2023-04-06T00:41:45;10.27;;;9.13;;
10465;SDS011;5280;42.600;23.556;2023-04-06T00:44:15;10.13;;;8.90;;
10465;SDS011;5280;42.600;23.556;2023-04-06T00:46:43;8.93;;;8.03;;
10465;SDS011;5280;42.600;23.556;2023-04-06T00:49:10;11.17;;;9.57;;
10465;SDS011;5280;42.600;23.556;2023-04-06T00:51:37;10.13;;;9.03;;
10465;SDS011;5280;42.600;23.556;2023-04-06T00:54:07;12.67;;;8.73;;
10465;SDS011;5280;42.600;23.556;2023-04-06T00:56:35;9.77;;;8.67;;
10465;SDS011;5280;42.600;23.556;2023-04-06T00:59:02;10.20;;;8.47;;
10465;SDS011;5280;42.600;23.556;2023-04-06T01:01:29;11.03;;;9.00;;
10465;SDS011;5280;42.600;23.556;2023-04-06T01:03:59;9.73;;;8.73;;
10465;SDS011;5280;42.600;23.556;2023-04-06T01:06:27;10.97;;;9.43;;
10465;SDS011;5280;42.600;23.556;2023-04-06T01:08:54;10.20;;;8.67;;
10465;SDS011;5280;42.600;23.556;2023-04-06T01:11:21;12.70;;;9.13;;
10465;SDS011;5280;42.600;23.556;2023-04-06T01:13:48;11.07;;;9.07;;
10465;SDS011;5280;42.600;23.556;2023-04-06T01:16:15;10.47;;;9.37;;
10465;SDS011;5280;42.600;23.556;2023-04-06T01:18:42;12.80;;;9.30;;
10465;SDS011;5280;42.600;23.556;2023-04-06T01:21:12;9.87;;;8.63;;
10465;SDS011;5280;42.600;23.556;2023-04-06T01:23:43;12.47;;;9.03;;
10465;SDS011;5280;42.600;23.556;2023-04-06T01:26:11;10.50;;;8.50;;
10465;SDS011;5280;42.600;23.556;2023-04-06T01:28:38;10.20;;;8.50;;
10465;SDS011;5280;42.600;23.556;2023-04-06T01:31:05;10.47;;;8.63;;
10465;SDS011;5280;42.600;23.556;2023-04-06T01:33:34;10.60;;;8.57;;
10465;SDS011;5280;42.600;23.556;2023-04-06T01:36:02;10.20;;;8.90;;
10465;SDS011;5280;42.600;23.556;2023-04-06T01:38:29;10.13;;;8.43;;
10465;SDS011;5280;42.600;23.556;2023-04-06T01:40:57;10.60;;;8.83;;
10465;SDS011;5280;42.600;23.556;2023-04-06T01:43:24;10.73;;;8.93;;
10465;SDS011;5280;42.600;23.556;2023-04-06T01:45:54;8.50;;;7.63;;
10465;SDS011;5280;42.600;23.556;2023-04-06T01:48:20;11.83;;;9.10;;
10465;SDS011;5280;42.600;23.556;2023-04-06T01:50:47;8.53;;;7.03;;
10465;SDS011;5280;42.600;23.556;2023-04-06T01:53:14;8.63;;;7.63;;
10465;SDS011;5280;42.600;23.556;2023-04-06T01:55:41;9.43;;;7.73;;
10465;SDS011;5280;42.600;23.556;2023-04-06T01:58:10;8.73;;;7.77;;
10465;SDS011;5280;42.600;23.556;2023-04-06T02:00:36;9.83;;;7.50;;
10465;SDS011;5280;42.600;23.556;2023-04-06T02:03:04;10.00;;;8.20;;
10465;SDS011;5280;42.600;23.556;2023-04-06T02:05:31;10.30;;;9.00;;
10465;SDS011;5280;42.600;23.556;2023-04-06T02:08:02;14.53;;;10.20;;
10465;SDS011;5280;42.600;23.556;2023-04-06T02:10:30;11.60;;;8.87;;
10465;SDS011;5280;42.600;23.556;2023-04-06T02:12:57;8.73;;;7.60;;
10465;SDS011;5280;42.600;23.556;2023-04-06T02:15:26;7.80;;;7.00;;
10465;SDS011;5280;42.600;23.556;2023-04-06T02:17:53;7.50;;;6.60;;
10465;SDS011;5280;42.600;23.556;2023-04-06T02:20:20;7.50;;;6.17;;
10465;SDS011;5280;42.600;23.556;2023-04-06T02:22:47;7.23;;;5.70;;
10465;SDS011;5280;42.600;23.556;2023-04-06T02:25:13;6.43;;;5.83;;
10465;SDS011;5280;42.600;23.556;2023-04-06T02:27:40;6.50;;;5.90;;
10465;SDS011;5280;42.600;23.556;2023-04-06T02:30:07;7.03;;;5.90;;
10465;SDS011;5280;42.600;23.556;2023-04-06T02:32:36;8.17;;;6.00;;
10465;SDS011;5280;42.600;23.556;2023-04-06T02:35:05;6.93;;;5.80;;
10465;SDS011;5280;42.600;23.556;2023-04-06T02:37:32;6.83;;;6.13;;
10465;SDS011;5280;42.600;23.556;2023-04-06T02:39:59;7.67;;;6.40;;
10465;SDS011;5280;42.600;23.556;2023-04-06T02:42:26;7.00;;;6.27;;
10465;SDS011;5280;42.600;23.556;2023-04-06T02:44:52;7.23;;;6.50;;
10465;SDS011;5280;42.600;23.556;2023-04-06T02:47:19;6.97;;;6.27;;
10465;SDS011;5280;42.600;23.556;2023-04-06T02:49:47;6.77;;;6.07;;
10465;SDS011;5280;42.600;23.556;2023-04-06T02:52:14;7.03;;;6.33;;
10465;SDS011;5280;42.600;23.556;2023-04-06T02:54:45;8.23;;;6.07;;
10465;SDS011;5280;42.600;23.556;2023-04-06T02:57:12;9.23;;;6.83;;
10465;SDS011;5280;42.600;23.556;2023-04-06T02:59:39;7.50;;;6.70;;
10465;SDS011;5280;42.600;23.556;2023-04-06T03:02:05;6.67;;;5.97;;
10465;SDS011;5280;42.600;23.556;2023-04-06T03:04:32;6.93;;;6.10;;
10465;SDS011;5280;42.600;23.556;2023-04-06T03:07:01;7.23;;;6.37;;
10465;SDS011;5280;42.600;23.556;2023-04-06T03:09:28;6.63;;;6.03;;
10465;SDS011;5280;42.600;23.556;2023-04-06T03:11:54;5.57;;;4.83;;
10465;SDS011;5280;42.600;23.556;2023-04-06T03:14:24;5.67;;;5.03;;
10465;SDS011;5280;42.600;23.556;2023-04-06T03:16:51;6.37;;;5.00;;
10465;SDS011;5280;42.600;23.556;2023-04-06T03:19:17;6.43;;;5.63;;
10465;SDS011;5280;42.600;23.556;2023-04-06T03:21:44;6.30;;;5.70;;
10465;SDS011;5280;42.600;23.556;2023-04-06T03:24:13;6.30;;;5.70;;
10465;SDS011;5280;42.600;23.556;2023-04-06T03:26:40;8.03;;;6.47;;
10465;SDS011;5280;42.600;23.556;2023-04-06T03:29:07;8.73;;;6.50;;
10465;SDS011;5280;42.600;23.556;2023-04-06T03:31:34;6.77;;;6.07;;
10465;SDS011;5280;42.600;23.556;2023-04-06T03:34:01;8.37;;;6.93;;
10465;SDS011;5280;42.600;23.556;2023-04-06T03:36:28;7.63;;;6.80;;
10465;SDS011;5280;42.600;23.556;2023-04-06T03:38:55;7.93;;;7.00;;
10465;SDS011;5280;42.600;23.556;2023-04-06T03:41:24;7.33;;;6.60;;
10465;SDS011;5280;42.600;23.556;2023-04-06T03:43:51;8.27;;;6.83;;
10465;SDS011;5280;42.600;23.556;2023-04-06T03:46:18;7.03;;;5.93;;
10465;SDS011;5280;42.600;23.556;2023-04-06T03:48:47;7.50;;;6.70;;
10465;SDS011;5280;42.600;23.556;2023-04-06T03:51:18;7.33;;;6.57;;
10465;SDS011;5280;42.600;23.556;2023-04-06T03:53:45;7.57;;;6.77;;
10465;SDS011;5280;42.600;23.556;2023-04-06T03:56:12;6.63;;;6.03;;
10465;SDS011;5280;42.600;23.556;2023-04-06T03:58:41;7.83;;;7.03;;
10465;SDS011;5280;42.600;23.556;2023-04-06T04:01:09;7.23;;;6.47;;
10465;SDS011;5280;42.600;23.556;2023-04-06T04:03:36;8.00;;;6.57;;
10465;SDS011;5280;42.600;23.556;2023-04-06T04:06:06;7.23;;;6.50;;
10465;SDS011;5280;42.600;23.556;2023-04-06T04:08:33;7.17;;;5.67;;
10465;SDS011;5280;42.600;23.556;2023-04-06T04:11:00;6.97;;;6.13;;
10465;SDS011;5280;42.600;23.556;2023-04-06T04:13:27;7.57;;;6.50;;
10465;SDS011;5280;42.600;23.556;2023-04-06T04:15:55;6.70;;;6.00;;
10465;SDS011;5280;42.600;23.556;2023-04-06T04:18:22;6.57;;;5.80;;
10465;SDS011;5280;42.600;23.556;2023-04-06T04:20:50;6.33;;;5.73;;
10465;SDS011;5280;42.600;23.556;2023-04-06T04:23:17;6.47;;;5.20;;
10465;SDS011;5280;42.600;23.556;2023-04-06T04:25:44;5.73;;;5.20;;
10465;SDS011;5280;42.600;23.556;2023-04-06T04:28:11;6.80;;;6.10;;
10465;SDS011;5280;42.600;23.556;2023-04-06T04:30:38;8.10;;;5.80;;
10465;SDS011;5280;42.600;23.556;2023-04-06T04:33:07;5.90;;;5.30;;
10465;SDS011;5280;42.600;23.556;2023-04-06T04:35:34;7.53;;;5.80;;
10465;SDS011;5280;42.600;23.556;2023-04-06T04:38:00;5.87;;;5.27;;
10465;SDS011;5280;42.600;23.556;2023-04-06T04:40:27;7.70;;;6.57;;
10465;SDS011;5280;42.600;23.556;2023-04-06T04:42:54;9.03;;;6.90;;
10465;SDS011;5280;42.600;23.556;2023-04-06T04:45:21;7.57;;;6.77;;
10465;SDS011;5280;42.600;23.556;2023-04-06T04:47:48;9.20;;;7.07;;
10465;SDS011;5280;42.600;23.556;2023-04-06T04:50:16;8.20;;;7.40;;
10465;SDS011;5280;42.600;23.556;2023-04-06T04:52:43;8.70;;;7.70;;
10465;SDS011;5280;42.600;23.556;2023-04-06T04:55:10;10.40;;;7.83;;
10465;SDS011;5280;42.600;23.556;2023-04-06T04:57:37;8.83;;;7.50;;
10465;SDS011;5280;42.600;23.556;2023-04-06T05:00:04;10.13;;;7.97;;
10465;SDS011;5280;42.600;23.556;2023-04-06T05:02:32;8.63;;;7.73;;
10465;SDS011;5280;42.600;23.556;2023-04-06T05:04:59;10.30;;;7.07;;
10465;SDS011;5280;42.600;23.556;2023-04-06T05:07:27;7.60;;;6.87;;
10465;SDS011;5280;42.600;23.556;2023-04-06T05:09:54;7.00;;;6.30;;
10465;SDS011;5280;42.600;23.556;2023-04-06T05:12:21;7.27;;;6.07;;
10465;SDS011;5280;42.600;23.556;2023-04-06T05:14:48;7.87;;;6.57;;
10465;SDS011;5280;42.600;23.556;2023-04-06T05:17:15;6.90;;;6.20;;
10465;SDS011;5280;42.600;23.556;2023-04-06T05:19:42;7.30;;;5.70;;
10465;SDS011;5280;42.600;23.556;2023-04-06T05:22:09;7.97;;;7.13;;
10465;SDS011;5280;42.600;23.556;2023-04-06T05:24:37;9.10;;;8.03;;
10465;SDS011;5280;42.600;23.556;2023-04-06T05:27:05;11.40;;;8.77;;
10465;SDS011;5280;42.600;23.556;2023-04-06T05:29:32;11.90;;;9.40;;
10465;SDS011;5280;42.600;23.556;2023-04-06T05:31:59;10.13;;;9.03;;
10465;SDS011;5280;42.600;23.556;2023-04-06T05:34:27;11.73;;;8.10;;
10465;SDS011;5280;42.600;23.556;2023-04-06T05:36:54;8.97;;;8.07;;
10465;SDS011;5280;42.600;23.556;2023-04-06T05:39:21;8.23;;;6.97;;
10465;SDS011;5280;42.600;23.556;2023-04-06T05:41:50;6.87;;;6.17;;
10465;SDS011;5280;42.600;23.556;2023-04-06T05:44:17;7.10;;;5.53;;
10465;SDS011;5280;42.600;23.556;2023-04-06T05:46:44;6.90;;;5.83;;
10465;SDS011;5280;42.600;23.556;2023-04-06T05:49:11;8.17;;;6.03;;
10465;SDS011;5280;42.600;23.556;2023-04-06T05:51:38;9.67;;;6.40;;
10465;SDS011;5280;42.600;23.556;2023-04-06T05:54:05;6.77;;;6.10;;
10465;SDS011;5280;42.600;23.556;2023-04-06T05:56:32;6.93;;;6.20;;
10465;SDS011;5280;42.600;23.556;2023-04-06T05:59:00;8.00;;;6.87;;
10465;SDS011;5280;42.600;23.556;2023-04-06T06:01:27;8.63;;;7.10;;
10465;SDS011;5280;42.600;23.556;2023-04-06T06:03:54;8.87;;;7.17;;
10465;SDS011;5280;42.600;23.556;2023-04-06T06:06:21;7.30;;;6.43;;
10465;SDS011;5280;42.600;23.556;2023-04-06T06:08:48;8.03;;;6.77;;
10465;SDS011;5280;42.600;23.556;2023-04-06T06:11:15;8.43;;;6.80;;
10465;SDS011;5280;42.600;23.556;2023-04-06T06:13:42;8.23;;;6.57;;
10465;SDS011;5280;42.600;23.556;2023-04-06T06:16:10;9.77;;;6.97;;
10465;SDS011;5280;42.600;23.556;2023-04-06T06:18:37;9.67;;;7.97;;
10465;SDS011;5280;42.600;23.556;2023-04-06T06:21:04;10.20;;;8.17;;
10465;SDS011;5280;42.600;23.556;2023-04-06T06:23:31;8.37;;;7.50;;
10465;SDS011;5280;42.600;23.556;2023-04-06T06:25:58;9.77;;;7.90;;
10465;SDS011;5280;42.600;23.556;2023-04-06T06:28:26;9.30;;;7.10;;
10465;SDS011;5280;42.600;23.556;2023-04-06T06:30:53;8.93;;;7.23;;
10465;SDS011;5280;42.600;23.556;2023-04-06T06:33:21;8.93;;;7.90;;
10465;SDS011;5280;42.600;23.556;2023-04-06T06:35:48;7.83;;;7.03;;
10465;SDS011;5280;42.600;23.556;2023-04-06T06:38:16;10.20;;;7.60;;
10465;SDS011;5280;42.600;23.556;2023-04-06T06:40:44;8.70;;;7.23;;
10465;SDS011;5280;42.600;23.556;2023-04-06T06:43:12;9.83;;;8.40;;
10465;SDS011;5280;42.600;23.556;2023-04-06T06:45:39;8.70;;;7.67;;
10465;SDS011;5280;42.600;23.556;2023-04-06T06:48:06;9.60;;;8.10;;
10465;SDS011;5280;42.600;23.556;2023-04-06T06:50:35;12.30;;;8.93;;
10465;SDS011;5280;42.600;23.556;2023-04-06T06:53:02;14.73;;;9.73;;
10465;SDS011;5280;42.600;23.556;2023-04-06T06:55:29;12.43;;;9.40;;
10465;SDS011;5280;42.600;23.556;2023-04-06T06:57:56;11.13;;;9.03;;
10465;SDS011;5280;42.600;23.556;2023-04-06T07:00:23;11.40;;;8.90;;
10465;SDS011;5280;42.600;23.556;2023-04-06T07:02:50;13.53;;;9.83;;
10465;SDS011;5280;42.600;23.556;2023-04-06T07:05:17;10.70;;;8.90;;
10465;SDS011;5280;42.600;23.556;2023-04-06T07:07:45;10.33;;;8.17;;
10465;SDS011;5280;42.600;23.556;2023-04-06T07:10:12;11.07;;;8.93;;
10465;SDS011;5280;42.600;23.556;2023-04-06T07:12:39;11.10;;;8.87;;
10465;SDS011;5280;42.600;23.556;2023-04-06T07:15:06;10.80;;;8.57;;
10465;SDS011;5280;42.600;23.556;2023-04-06T07:17:34;10.17;;;8.57;;
10465;SDS011;5280;42.600;23.556;2023-04-06T07:20:02;8.93;;;8.03;;
10465;SDS011;5280;42.600;23.556;2023-04-06T07:22:31;12.33;;;8.17;;
10465;SDS011;5280;42.600;23.556;2023-04-06T07:24:59;11.63;;;9.07;;
10465;SDS011;5280;42.600;23.556;2023-04-06T07:27:26;12.17;;;8.70;;
10465;SDS011;5280;42.600;23.556;2023-04-06T07:29:53;9.70;;;8.17;;
10465;SDS011;5280;42.600;23.556;2023-04-06T07:32:20;9.40;;;8.40;;
10465;SDS011;5280;42.600;23.556;2023-04-06T07:34:47;10.30;;;9.17;;
10465;SDS011;5280;42.600;23.556;2023-04-06T07:37:14;10.03;;;8.60;;
10465;SDS011;5280;42.600;23.556;2023-04-06T07:39:41;9.47;;;8.47;;
10465;SDS011;5280;42.600;23.556;2023-04-06T07:42:09;9.63;;;8.53;;
10465;SDS011;5280;42.600;23.556;2023-04-06T07:44:36;12.63;;;8.53;;
10465;SDS011;5280;42.600;23.556;2023-04-06T07:47:03;10.40;;;8.60;;
10465;SDS011;5280;42.600;23.556;2023-04-06T07:49:30;9.57;;;8.50;;
10465;SDS011;5280;42.600;23.556;2023-04-06T07:51:58;10.83;;;9.17;;
10465;SDS011;5280;42.600;23.556;2023-04-06T07:54:25;8.63;;;7.67;;
10465;SDS011;5280;42.600;23.556;2023-04-06T07:56:52;10.17;;;8.10;;
10465;SDS011;5280;42.600;23.556;2023-04-06T07:59:21;10.17;;;8.63;;
10465;SDS011;5280;42.600;23.556;2023-04-06T08:01:47;8.80;;;7.90;;
10465;SDS011;5280;42.600;23.556;2023-04-06T08:04:14;10.13;;;8.63;;
10465;SDS011;5280;42.600;23.556;2023-04-06T08:06:41;9.00;;;8.10;;
10465;SDS011;5280;42.600;23.556;2023-04-06T08:09:08;10.33;;;8.10;;
10465;SDS011;5280;42.600;23.556;2023-04-06T08:11:35;10.33;;;7.67;;
10465;SDS011;5280;42.600;23.556;2023-04-06T08:14:02;8.10;;;7.30;;
10465;SDS011;5280;42.600;23.556;2023-04-06T08:16:30;9.50;;;7.70;;
10465;SDS011;5280;42.600;23.556;2023-04-06T08:18:57;7.50;;;6.60;;
10465;SDS011;5280;42.600;23.556;2023-04-06T08:21:24;8.90;;;7.90;;
10465;SDS011;5280;42.600;23.556;2023-04-06T08:23:51;8.60;;;7.70;;
10465;SDS011;5280;42.600;23.556;2023-04-06T08:26:18;9.60;;;7.50;;
10465;SDS011;5280;42.600;23.556;2023-04-06T08:28:45;8.93;;;8.03;;
10465;SDS011;5280;42.600;23.556;2023-04-06T08:31:12;8.70;;;7.47;;
10465;SDS011;5280;42.600;23.556;2023-04-06T08:33:40;9.17;;;7.87;;
10465;SDS011;5280;42.600;23.556;2023-04-06T08:36:08;9.03;;;8.13;;
10465;SDS011;5280;42.600;23.556;2023-04-06T08:38:35;9.43;;;7.97;;
10465;SDS011;5280;42.600;23.556;2023-04-06T08:41:06;11.13;;;6.97;;
10465;SDS011;5280;42.600;23.556;2023-04-06T08:43:35;7.77;;;6.90;;
10465;SDS011;5280;42.600;23.556;2023-04-06T08:46:08;7.17;;;6.47;;
10465;SDS011;5280;42.600;23.556;2023-04-06T08:48:35;7.40;;;6.70;;
10465;SDS011;5280;42.600;23.556;2023-04-06T08:51:04;10.67;;;7.47;;
10465;SDS011;5280;42.600;23.556;2023-04-06T08:53:32;9.67;;;7.80;;
10465;SDS011;5280;42.600;23.556;2023-04-06T08:55:59;10.47;;;8.20;;
10465;SDS011;5280;42.600;23.556;2023-04-06T08:58:28;10.80;;;6.93;;
10465;SDS011;5280;42.600;23.556;2023-04-06T09:00:59;11.23;;;6.97;;
10465;SDS011;5280;42.600;23.556;2023-04-06T09:03:27;8.10;;;6.60;;
10465;SDS011;5280;42.600;23.556;2023-04-06T09:05:55;10.23;;;7.50;;
10465;SDS011;5280;42.600;23.556;2023-04-06T09:08:24;7.43;;;6.73;;
10465;SDS011;5280;42.600;23.556;2023-04-06T09:10:51;7.40;;;6.70;;
10465;SDS011;5280;42.600;23.556;2023-04-06T09:13:19;7.90;;;7.10;;
10465;SDS011;5280;42.600;23.556;2023-04-06T09:15:46;7.70;;;6.27;;
10465;SDS011;5280;42.600;23.556;2023-04-06T09:18:12;7.93;;;6.27;;
10465;SDS011;5280;42.600;23.556;2023-04-06T09:20:40;7.17;;;6.47;;
10465;SDS011;5280;42.600;23.556;2023-04-06T09:23:16;7.63;;;6.83;;
10465;SDS011;5280;42.600;23.556;2023-04-06T09:25:45;8.63;;;6.27;;
10465;SDS011;5280;42.600;23.556;2023-04-06T09:28:12;6.67;;;6.03;;
10465;SDS011;5280;42.600;23.556;2023-04-06T09:30:47;6.77;;;5.97;;
10465;SDS011;5280;42.600;23.556;2023-04-06T09:33:21;6.83;;;5.90;;
10465;SDS011;5280;42.600;23.556;2023-04-06T09:35:49;6.93;;;6.23;;
10465;SDS011;5280;42.600;23.556;2023-04-06T09:38:16;7.20;;;5.97;;
10465;SDS011;5280;42.600;23.556;2023-04-06T09:40:51;6.67;;;5.57;;
10465;SDS011;5280;42.600;23.556;2023-04-06T09:43:23;6.30;;;5.70;;
10465;SDS011;5280;42.600;23.556;2023-04-06T09:45:51;7.53;;;6.13;;
10465;SDS011;5280;42.600;23.556;2023-04-06T09:48:19;8.17;;;6.43;;
10465;SDS011;5280;42.600;23.556;2023-04-06T09:50:47;6.67;;;5.97;;
10465;SDS011;5280;42.600;23.556;2023-04-06T09:53:16;7.20;;;5.90;;
10465;SDS011;5280;42.600;23.556;2023-04-06T09:55:45;7.60;;;5.17;;
10465;SDS011;5280;42.600;23.556;2023-04-06T09:58:18;5.67;;;5.13;;
10465;SDS011;5280;42.600;23.556;2023-04-06T10:00:53;6.27;;;5.67;;
10465;SDS011;5280;42.600;23.556;2023-04-06T10:03:26;6.70;;;6.07;;
10465;SDS011;5280;42.600;23.556;2023-04-06T10:06:04;7.40;;;6.70;;
10465;SDS011;5280;42.600;23.556;2023-04-06T10:08:33;7.70;;;6.30;;
10465;SDS011;5280;42.600;23.556;2023-04-06T10:11:05;6.57;;;5.40;;
10465;SDS011;5280;42.600;23.556;2023-04-06T10:13:33;7.00;;;5.83;;
10465;SDS011;5280;42.600;23.556;2023-04-06T10:16:01;7.50;;;5.60;;
10465;SDS011;5280;42.600;23.556;2023-04-06T10:18:29;6.87;;;5.70;;
10465;SDS011;5280;42.600;23.556;2023-04-06T10:20:57;7.27;;;6.57;;
10465;SDS011;5280;42.600;23.556;2023-04-06T10:23:30;7.77;;;6.83;;
10465;SDS011;5280;42.600;23.556;2023-04-06T10:26:00;9.13;;;6.77;;
10465;SDS011;5280;42.600;23.556;2023-04-06T10:28:30;6.93;;;6.33;;
10465;SDS011;5280;42.600;23.556;2023-04-06T10:31:00;6.53;;;5.93;;
10465;SDS011;5280;42.600;23.556;2023-04-06T10:33:28;6.67;;;6.07;;
10465;SDS011;5280;42.600;23.556;2023-04-06T10:35:55;7.10;;;6.40;;
10465;SDS011;5280;42.600;23.556;2023-04-06T10:38:32;6.97;;;6.27;;
10465;SDS011;5280;42.600;23.556;2023-04-06T10:41:03;8.73;;;6.50;;
10465;SDS011;5280;42.600;23.556;2023-04-06T10:43:32;6.77;;;5.87;;
10465;SDS011;5280;42.600;23.556;2023-04-06T10:46:02;6.80;;;6.10;;
10465;SDS011;5280;42.600;23.556;2023-04-06T10:48:36;7.10;;;6.40;;
10465;SDS011;5280;42.600;23.556;2023-04-06T10:51:07;8.17;;;6.10;;
10465;SDS011;5280;42.600;23.556;2023-04-06T10:53:36;7.63;;;5.77;;
10465;SDS011;5280;42.600;23.556;2023-04-06T10:56:03;5.93;;;5.37;;
10465;SDS011;5280;42.600;23.556;2023-04-06T10:58:35;9.00;;;6.60;;
10465;SDS011;5280;42.600;23.556;2023-04-06T11:01:03;6.60;;;6.00;;
10465;SDS011;5280;42.600;23.556;2023-04-06T11:03:31;5.80;;;5.30;;
10465;SDS011;5280;42.600;23.556;2023-04-06T11:05:59;6.50;;;5.87;;
10465;SDS011;5280;42.600;23.556;2023-04-06T11:08:26;6.60;;;5.90;;
10465;SDS011;5280;42.600;23.556;2023-04-06T11:11:04;7.00;;;5.90;;
10465;SDS011;5280;42.600;23.556;2023-04-06T11:13:38;6.60;;;6.00;;
10465;SDS011;5280;42.600;23.556;2023-04-06T11:16:11;6.60;;;5.97;;
10465;SDS011;5280;42.600;23.556;2023-04-06T11:18:46;6.70;;;6.10;;
10465;SDS011;5280;42.600;23.556;2023-04-06T11:21:17;6.63;;;6.03;;
10465;SDS011;5280;42.600;23.556;2023-04-06T11:23:45;8.33;;;6.10;;
10465;SDS011;5280;42.600;23.556;2023-04-06T11:26:12;7.60;;;5.80;;
10465;SDS011;5280;42.600;23.556;2023-04-06T11:28:39;7.13;;;6.10;;
10465;SDS011;5280;42.600;23.556;2023-04-06T11:31:08;6.03;;;5.43;;
10465;SDS011;5280;42.600;23.556;2023-04-06T11:33:35;6.80;;;6.07;;
10465;SDS011;5280;42.600;23.556;2023-04-06T11:36:03;5.80;;;5.20;;
10465;SDS011;5280;42.600;23.556;2023-04-06T11:38:31;6.93;;;6.23;;
10465;SDS011;5280;42.600;23.556;2023-04-06T11:40:58;6.90;;;6.20;;
10465;SDS011;5280;42.600;23.556;2023-04-06T11:43:27;6.87;;;6.17;;
10465;SDS011;5280;42.600;23.556;2023-04-06T11:45:59;6.17;;;5.67;;
10465;SDS011;5280;42.600;23.556;2023-04-06T11:48:28;6.93;;;6.27;;
10465;SDS011;5280;42.600;23.556;2023-04-06T11:50:56;6.67;;;6.00;;
10465;SDS011;5280;42.600;23.556;2023-04-06T11:53:23;8.53;;;5.67;;
10465;SDS011;5280;42.600;23.556;2023-04-06T11:55:50;6.10;;;5.60;;
10465;SDS011;5280;42.600;23.556;2023-04-06T11:58:17;5.73;;;5.23;;
10465;SDS011;5280;42.600;23.556;2023-04-06T12:00:44;6.50;;;5.90;;
10465;SDS011;5280;42.600;23.556;2023-04-06T12:03:12;7.00;;;6.40;;
10465;SDS011;5280;42.600;23.556;2023-04-06T12:05:40;6.50;;;5.90;;
10465;SDS011;5280;42.600;23.556;2023-04-06T12:08:07;6.50;;;5.83;;
10465;SDS011;5280;42.600;23.556;2023-04-06T12:10:34;8.90;;;6.10;;
10465;SDS011;5280;42.600;23.556;2023-04-06T12:13:01;6.90;;;6.20;;
10465;SDS011;5280;42.600;23.556;2023-04-06T12:15:28;8.20;;;5.50;;
10465;SDS011;5280;42.600;23.556;2023-04-06T12:17:55;6.67;;;5.53;;
10465;SDS011;5280;42.600;23.556;2023-04-06T12:20:22;6.83;;;6.03;;
10465;SDS011;5280;42.600;23.556;2023-04-06T12:22:51;6.57;;;5.97;;
10465;SDS011;5280;42.600;23.556;2023-04-06T12:25:18;6.47;;;5.77;;
10465;SDS011;5280;42.600;23.556;2023-04-06T12:27:45;6.30;;;5.70;;
10465;SDS011;5280;42.600;23.556;2023-04-06T12:30:12;5.90;;;5.40;;
10465;SDS011;5280;42.600;23.556;2023-04-06T12:32:39;6.83;;;5.90;;
10465;SDS011;5280;42.600;23.556;2023-04-06T12:35:06;6.97;;;5.87;;
10465;SDS011;5280;42.600;23.556;2023-04-06T12:37:36;6.10;;;5.47;;
10465;SDS011;5280;42.600;23.556;2023-04-06T12:40:06;6.70;;;6.00;;
10465;SDS011;5280;42.600;23.556;2023-04-06T12:42:35;6.30;;;5.70;;
10465;SDS011;5280;42.600;23.556;2023-04-06T12:45:02;6.03;;;5.43;;
10465;SDS011;5280;42.600;23.556;2023-04-06T12:47:29;6.10;;;5.27;;
10465;SDS011;5280;42.600;23.556;2023-04-06T12:49:56;6.20;;;5.60;;
10465;SDS011;5280;42.600;23.556;2023-04-06T12:55:32;11.30;;;6.10;;
10465;SDS011;5280;42.600;23.556;2023-04-06T12:58:00;7.50;;;6.30;;
10465;SDS011;5280;42.600;23.556;2023-04-06T13:00:27;7.77;;;5.90;;
10465;SDS011;5280;42.600;23.556;2023-04-06T13:02:55;6.27;;;5.67;;
10465;SDS011;5280;42.600;23.556;2023-04-06T13:05:22;9.20;;;5.77;;
10465;SDS011;5280;42.600;23.556;2023-04-06T13:07:49;7.13;;;6.10;;
10465;SDS011;5280;42.600;23.556;2023-04-06T13:10:16;7.33;;;5.70;;
10465;SDS011;5280;42.600;23.556;2023-04-06T13:12:44;6.40;;;5.80;;
10465;SDS011;5280;42.600;23.556;2023-04-06T13:15:11;6.57;;;5.67;;
10465;SDS011;5280;42.600;23.556;2023-04-06T13:17:38;6.20;;;5.60;;
10465;SDS011;5280;42.600;23.556;2023-04-06T13:20:05;7.17;;;5.70;;
10465;SDS011;5280;42.600;23.556;2023-04-06T13:22:32;6.33;;;5.50;;
10465;SDS011;5280;42.600;23.556;2023-04-06T13:24:59;7.83;;;5.43;;
10465;SDS011;5280;42.600;23.556;2023-04-06T13:27:26;7.93;;;5.90;;
10465;SDS011;5280;42.600;23.556;2023-04-06T13:29:55;5.90;;;5.40;;
10465;SDS011;5280;42.600;23.556;2023-04-06T13:32:25;6.03;;;5.50;;
10465;SDS011;5280;42.600;23.556;2023-04-06T13:34:54;6.83;;;6.13;;
10465;SDS011;5280;42.600;23.556;2023-04-06T13:37:20;6.30;;;5.70;;
10465;SDS011;5280;42.600;23.556;2023-04-06T13:39:47;6.67;;;5.97;;
10465;SDS011;5280;42.600;23.556;2023-04-06T13:42:14;7.63;;;5.97;;
10465;SDS011;5280;42.600;23.556;2023-04-06T13:44:41;5.30;;;4.80;;
10465;SDS011;5280;42.600;23.556;2023-04-06T13:47:09;6.60;;;6.00;;
10465;SDS011;5280;42.600;23.556;2023-04-06T13:49:37;6.40;;;5.73;;
10465;SDS011;5280;42.600;23.556;2023-04-06T13:52:04;7.80;;;6.20;;
10465;SDS011;5280;42.600;23.556;2023-04-06T13:54:30;6.20;;;5.03;;
10465;SDS011;5280;42.600;23.556;2023-04-06T13:56:57;6.63;;;5.63;;
10465;SDS011;5280;42.600;23.556;2023-04-06T13:59:25;7.10;;;5.73;;
10465;SDS011;5280;42.600;23.556;2023-04-06T14:01:58;6.93;;;5.97;;
10465;SDS011;5280;42.600;23.556;2023-04-06T14:04:26;6.53;;;5.90;;
10465;SDS011;5280;42.600;23.556;2023-04-06T14:06:53;6.00;;;5.40;;
10465;SDS011;5280;42.600;23.556;2023-04-06T14:09:20;6.40;;;5.80;;
10465;SDS011;5280;42.600;23.556;2023-04-06T14:11:47;6.93;;;6.23;;
10465;SDS011;5280;42.600;23.556;2023-04-06T14:14:13;6.50;;;5.03;;
10465;SDS011;5280;42.600;23.556;2023-04-06T14:16:40;5.83;;;5.23;;
10465;SDS011;5280;42.600;23.556;2023-04-06T14:19:09;6.30;;;5.70;;
10465;SDS011;5280;42.600;23.556;2023-04-06T14:21:37;6.83;;;5.53;;
10465;SDS011;5280;42.600;23.556;2023-04-06T14:24:05;5.63;;;5.13;;
10465;SDS011;5280;42.600;23.556;2023-04-06T14:26:32;5.87;;;5.27;;
10465;SDS011;5280;42.600;23.556;2023-04-06T14:28:59;6.10;;;5.03;;
10465;SDS011;5280;42.600;23.556;2023-04-06T14:31:26;6.33;;;5.03;;
10465;SDS011;5280;42.600;23.556;2023-04-06T14:33:53;6.93;;;5.27;;
10465;SDS011;5280;42.600;23.556;2023-04-06T14:36:20;6.33;;;5.33;;
10465;SDS011;5280;42.600;23.556;2023-04-06T14:38:48;6.13;;;5.10;;
10465;SDS011;5280;42.600;23.556;2023-04-06T14:41:15;7.03;;;5.40;;
10465;SDS011;5280;42.600;23.556;2023-04-06T14:43:43;5.70;;;5.10;;
10465;SDS011;5280;42.600;23.556;2023-04-06T14:46:10;6.90;;;5.33;;
10465;SDS011;5280;42.600;23.556;2023-04-06T14:48:36;7.17;;;6.03;;
10465;SDS011;5280;42.600;23.556;2023-04-06T14:51:03;7.37;;;5.50;;